LGW weather

London Gatwick Airport
London, England, United Kingdom

Public forecast

Using degrees Celsius for public forecast. Weather courtesy of forecast.io.

METAR (pilot weather report)

Retrieved 2017/05/28 23:20 UTC (34 minutes ago):

EGKK 282320Z 09004KT 9999 -RA VCTS SCT045CB 16/12 Q1014

TAF (pilot weather forecast)

Retrieved 2017/05/28 18:15 UTC (6 hours ago):

TAF EGKK 281653Z 2818/2924 09006KT 9999 SCT045 PROB40 TEMPO 2818/2822 7000 SHRA PROB40 TEMPO 2822/2904 14015G25KT 3000 +TSRA TEMPO 2904/2914 BKN012 PROB30 2904/2907 4000 BR BKN005 BECMG 2909/2912 21010KT BKN020 PROB40 TEMPO 2914/2917 7000 SHRA BKN014 PROB40 TEMPO 2917/2924 BKN014